createdAt,value
2019-01-04T00:04:59.061Z,7.60
2019-01-04T00:07:32.663Z,8.57
2019-01-04T00:10:06.069Z,3.80
2019-01-04T00:12:39.597Z,5.13
2019-01-04T00:15:12.893Z,8.17
2019-01-04T00:17:46.379Z,7.50
2019-01-04T00:20:20.320Z,6.70
2019-01-04T00:22:53.563Z,4.73
2019-01-04T00:25:26.890Z,4.57
2019-01-04T00:28:00.054Z,7.17
2019-01-04T00:30:34.001Z,2.83
2019-01-04T00:33:07.728Z,5.47
2019-01-04T00:35:45.903Z,5.40
2019-01-04T00:38:19.152Z,6.83
2019-01-04T00:40:52.459Z,3.37
2019-01-04T00:43:26.405Z,7.50
2019-01-04T00:45:59.742Z,5.63
2019-01-04T00:48:32.950Z,5.33
2019-01-04T00:51:07.293Z,6.30
2019-01-04T00:53:40.698Z,8.03
2019-01-04T00:57:19.780Z,4.23
2019-01-04T01:01:01.310Z,7.17
2019-01-04T01:04:55.147Z,3.77
2019-01-04T01:08:12.344Z,7.17
2019-01-04T01:12:17.805Z,3.90
2019-01-04T01:15:47.155Z,4.53
2019-01-04T01:19:20.623Z,7.57
2019-01-04T01:22:50.091Z,4.60
2019-01-04T01:26:28.062Z,7.93
2019-01-04T01:29:58.050Z,5.43
2019-01-04T01:33:50.334Z,8.47
2019-01-04T01:37:22.595Z,3.87
2019-01-04T01:41:08.142Z,4.47
2019-01-04T01:44:39.296Z,4.80
2019-01-04T01:47:52.906Z,4.13
2019-01-04T01:51:22.697Z,7.63
2019-01-04T01:53:57.223Z,5.57
2019-01-04T01:56:30.969Z,7.30
2019-01-04T01:59:04.588Z,7.30
2019-01-04T02:01:38.149Z,5.20
2019-01-04T02:04:12.720Z,6.60
2019-01-04T02:06:46.490Z,6.03
2019-01-04T02:09:20.093Z,6.57
2019-01-04T02:11:54.350Z,2.83
2019-01-04T02:14:27.985Z,6.37
2019-01-04T02:17:01.424Z,5.80
2019-01-04T02:19:35.148Z,6.10
2019-01-04T02:22:09.675Z,5.03
2019-01-04T02:24:43.613Z,5.10
2019-01-04T02:27:16.920Z,5.67
2019-01-04T02:29:54.590Z,4.40
2019-01-04T02:32:28.590Z,5.37
2019-01-04T02:35:01.991Z,6.17
2019-01-04T02:37:35.848Z,5.63
2019-01-04T02:40:09.388Z,3.57
2019-01-04T02:42:43.299Z,3.90
2019-01-04T02:45:16.717Z,7.13
2019-01-04T02:47:50.219Z,4.77
2019-01-04T02:50:24.063Z,7.13
2019-01-04T02:52:57.832Z,4.63
2019-01-04T02:55:31.263Z,7.20
2019-01-04T02:58:04.551Z,3.70
2019-01-04T03:00:38.799Z,7.77
2019-01-04T03:03:12.340Z,7.97
2019-01-04T03:05:45.460Z,8.27
2019-01-04T03:08:20.343Z,4.73
2019-01-04T03:10:53.637Z,4.77
2019-01-04T03:13:27.108Z,6.57
2019-01-04T03:16:00.370Z,4.97
2019-01-04T03:18:34.608Z,4.53
2019-01-04T03:21:07.922Z,6.60
2019-01-04T03:23:41.746Z,4.87
2019-01-04T03:26:15.546Z,5.37
2019-01-04T03:28:49.299Z,5.17
2019-01-04T03:31:22.966Z,7.13
2019-01-04T03:33:56.520Z,4.60
2019-01-04T03:36:30.185Z,4.43
2019-01-04T03:39:06.596Z,4.73
2019-01-04T03:41:39.836Z,3.37
2019-01-04T03:44:13.322Z,5.87
2019-01-04T03:46:46.804Z,4.63
2019-01-04T03:49:22.142Z,3.47
2019-01-04T03:51:56.084Z,6.47
2019-01-04T03:54:29.665Z,3.73
2019-01-04T03:57:03.393Z,4.60
2019-01-04T03:59:36.928Z,4.53
2019-01-04T04:02:10.697Z,5.67
2019-01-04T04:04:45.372Z,3.50
2019-01-04T04:07:19.110Z,8.03
2019-01-04T04:09:52.848Z,4.23
2019-01-04T04:12:26.771Z,3.30
2019-01-04T04:15:01.173Z,5.13
2019-01-04T04:17:34.672Z,4.63
2019-01-04T04:20:09.308Z,7.60
2019-01-04T04:22:42.614Z,7.17
2019-01-04T04:25:15.836Z,5.23
2019-01-04T04:27:49.422Z,5.67
2019-01-04T04:30:24.002Z,5.03
2019-01-04T04:32:57.532Z,3.37
2019-01-04T04:35:30.912Z,6.50
2019-01-04T04:38:04.325Z,6.07
2019-01-04T04:40:37.962Z,2.93
2019-01-04T04:43:11.212Z,5.70
2019-01-04T04:45:44.742Z,6.47
2019-01-04T04:48:18.152Z,3.83
2019-01-04T04:50:51.504Z,3.37
2019-01-04T04:53:24.828Z,4.40
2019-01-04T04:55:58.525Z,3.63
2019-01-04T04:58:32.259Z,5.60
2019-01-04T05:01:05.989Z,2.80
2019-01-04T05:03:39.479Z,9.23
2019-01-04T05:06:12.871Z,4.47
2019-01-04T05:08:45.952Z,4.97
2019-01-04T05:11:19.269Z,3.87
2019-01-04T05:13:53.525Z,4.00
2019-01-04T05:16:29.866Z,4.20
2019-01-04T05:19:03.236Z,6.53
2019-01-04T05:21:36.287Z,7.63
2019-01-04T05:24:09.854Z,6.43
2019-01-04T05:26:44.814Z,7.90
2019-01-04T05:29:19.589Z,8.77
2019-01-04T05:31:52.645Z,4.23
2019-01-04T05:34:26.237Z,5.30
2019-01-04T05:36:59.623Z,4.67
2019-01-04T05:39:35.160Z,6.13
2019-01-04T05:42:08.616Z,7.57
2019-01-04T05:44:42.050Z,6.63
2019-01-04T05:47:15.550Z,6.60
2019-01-04T05:49:49.454Z,5.10
2019-01-04T05:52:22.812Z,7.17
2019-01-04T05:54:56.037Z,5.63
2019-01-04T05:57:30.301Z,5.87
2019-01-04T06:00:05.327Z,4.60
2019-01-04T06:02:40.084Z,5.30
2019-01-04T06:05:13.364Z,9.70
2019-01-04T06:07:48.073Z,6.63
2019-01-04T06:10:22.612Z,7.77
2019-01-04T06:12:56.118Z,7.80
2019-01-04T06:15:30.171Z,6.90
2019-01-04T06:18:03.785Z,7.83
2019-01-04T06:20:37.014Z,6.63
2019-01-04T06:23:10.909Z,5.93
2019-01-04T06:25:44.220Z,6.23
2019-01-04T06:28:18.306Z,7.60
2019-01-04T06:30:52.034Z,6.93
2019-01-04T06:33:25.116Z,5.80
2019-01-04T06:35:58.646Z,6.50
2019-01-04T06:38:32.457Z,9.67
2019-01-04T06:41:05.624Z,10.60
2019-01-04T06:43:40.141Z,9.53
2019-01-04T06:46:15.197Z,8.97
2019-01-04T06:48:49.596Z,8.60
2019-01-04T06:51:27.803Z,5.83
2019-01-04T06:53:59.453Z,13.00
2019-01-04T06:56:32.819Z,6.67
2019-01-04T06:59:06.556Z,5.80
2019-01-04T07:01:40.439Z,7.73
2019-01-04T07:04:13.980Z,6.90
2019-01-04T07:06:47.160Z,5.00
2019-01-04T07:09:20.436Z,7.00
2019-01-04T07:11:53.715Z,7.27
2019-01-04T07:14:26.955Z,13.30
2019-01-04T07:17:02.480Z,7.30
2019-01-04T07:19:36.721Z,6.07
2019-01-04T07:22:09.963Z,3.87
2019-01-04T07:24:43.459Z,4.67
2019-01-04T07:27:16.722Z,7.83
2019-01-04T07:29:50.073Z,4.33
2019-01-04T07:32:23.251Z,9.63
2019-01-04T07:34:57.718Z,6.57
2019-01-04T07:37:31.350Z,23.93
2019-01-04T07:40:06.652Z,11.73
2019-01-04T07:42:41.856Z,7.60
2019-01-04T07:45:15.740Z,11.97
2019-01-04T07:47:49.796Z,16.63
2019-01-04T07:50:23.521Z,7.33
2019-01-04T07:52:56.817Z,9.03
2019-01-04T07:55:30.207Z,19.57
2019-01-04T07:58:03.475Z,27.93
2019-01-04T08:00:36.870Z,12.60
2019-01-04T08:03:36.872Z,15.30
2019-01-04T08:06:10.723Z,16.27
2019-01-04T08:08:44.197Z,14.43
2019-01-04T08:11:17.630Z,10.80
2019-01-04T08:13:50.992Z,10.43
2019-01-04T08:16:24.572Z,8.33
2019-01-04T08:18:58.091Z,12.40
2019-01-04T08:21:31.542Z,12.10
2019-01-04T08:24:06.521Z,15.37
2019-01-04T08:26:39.804Z,19.20
2019-01-04T08:29:13.263Z,9.57
2019-01-04T08:31:46.634Z,35.43
2019-01-04T08:34:20.024Z,22.63
2019-01-04T08:36:53.443Z,43.67
2019-01-04T08:39:27.756Z,11.47
2019-01-04T08:42:03.182Z,33.23
2019-01-04T08:44:36.223Z,26.93
2019-01-04T08:47:09.430Z,23.73
2019-01-04T08:49:42.673Z,31.77
2019-01-04T08:52:16.708Z,20.30
2019-01-04T08:54:50.950Z,16.63
2019-01-04T08:57:24.152Z,16.37
2019-01-04T08:59:57.541Z,22.17
2019-01-04T09:02:31.350Z,33.67
2019-01-04T09:05:07.670Z,28.37
2019-01-04T09:07:40.400Z,39.33
2019-01-04T09:10:13.632Z,10.07
2019-01-04T09:12:47.214Z,16.70
2019-01-04T09:15:21.413Z,14.13
2019-01-04T09:17:54.585Z,15.03
2019-01-04T09:20:29.871Z,12.80
2019-01-04T09:23:03.375Z,39.27
2019-01-04T09:25:37.053Z,15.77
2019-01-04T09:28:11.253Z,18.60
2019-01-04T09:30:44.591Z,10.13
2019-01-04T09:33:18.342Z,11.90
2019-01-04T09:35:52.833Z,12.67
2019-01-04T09:38:26.056Z,10.70
2019-01-04T09:41:34.054Z,8.63
2019-01-04T09:44:07.812Z,12.70
2019-01-04T09:46:41.232Z,12.53
2019-01-04T09:49:14.515Z,13.93
2019-01-04T09:51:48.273Z,13.43
2019-01-04T09:54:21.746Z,9.53
2019-01-04T09:56:54.863Z,20.30
2019-01-04T09:59:28.375Z,20.20
2019-01-04T10:02:01.564Z,23.00
2019-01-04T10:04:35.083Z,26.43
2019-01-04T10:07:10.776Z,24.40
2019-01-04T10:09:46.066Z,21.27
2019-01-04T10:12:19.463Z,15.43
2019-01-04T10:14:53.145Z,11.83
2019-01-04T10:17:26.443Z,19.67
2019-01-04T10:19:59.573Z,17.97
2019-01-04T10:22:33.354Z,14.43
2019-01-04T10:25:07.070Z,8.20
2019-01-04T10:27:41.434Z,12.77
2019-01-04T10:30:27.783Z,17.40
2019-01-04T10:33:01.213Z,9.70
2019-01-04T10:35:36.043Z,12.17
2019-01-04T10:38:09.588Z,11.73
2019-01-04T10:40:43.433Z,15.13
2019-01-04T10:43:17.195Z,12.93
2019-01-04T10:45:51.803Z,16.63
2019-01-04T10:48:26.155Z,13.93
2019-01-04T10:50:59.023Z,12.23
2019-01-04T10:53:32.613Z,28.53
2019-01-04T10:56:06.128Z,14.73
2019-01-04T10:58:40.489Z,16.00
2019-01-04T11:01:15.584Z,16.17
2019-01-04T11:03:50.043Z,18.07
2019-01-04T11:06:23.374Z,14.03
2019-01-04T11:08:56.712Z,26.27
2019-01-04T11:11:30.092Z,36.33
2019-01-04T11:14:03.533Z,31.47
2019-01-04T11:16:36.924Z,42.67
2019-01-04T11:19:10.425Z,17.37
2019-01-04T11:21:43.885Z,43.20
2019-01-04T11:25:37.288Z,12.10
2019-01-04T11:28:58.698Z,27.47
2019-01-04T11:32:13.619Z,30.57
2019-01-04T11:36:07.417Z,21.30
2019-01-04T11:39:12.688Z,17.47
2019-01-04T11:42:47.630Z,22.77
2019-01-04T11:46:17.256Z,14.67
2019-01-04T11:50:03.613Z,27.23
2019-01-04T11:52:55.754Z,30.80
2019-01-04T11:55:29.234Z,24.07
2019-01-04T11:58:02.763Z,27.90
2019-01-04T12:00:36.494Z,45.33
2019-01-04T12:03:11.253Z,45.77
2019-01-04T12:05:45.374Z,46.50
2019-01-04T12:08:18.941Z,24.87
2019-01-04T12:10:53.640Z,22.70
2019-01-04T12:13:26.800Z,22.63
2019-01-04T12:16:00.231Z,24.27
2019-01-04T12:18:34.742Z,17.60
2019-01-04T12:21:09.804Z,33.97
2019-01-04T12:23:44.861Z,36.67
2019-01-04T12:26:18.985Z,34.83
2019-01-04T12:28:52.433Z,26.30
2019-01-04T12:31:25.914Z,31.23
2019-01-04T12:33:59.457Z,25.23
2019-01-04T12:36:32.878Z,52.00
2019-01-04T12:39:08.430Z,85.03
2019-01-04T12:41:41.779Z,47.53
2019-01-04T12:44:16.167Z,30.33
2019-01-04T12:46:49.686Z,31.10
2019-01-04T12:49:23.137Z,47.70
2019-01-04T12:51:56.556Z,82.40
2019-01-04T12:54:31.069Z,39.47
2019-01-04T12:57:04.336Z,28.20
2019-01-04T12:59:38.804Z,26.07
2019-01-04T13:02:13.044Z,17.83
2019-01-04T13:04:46.733Z,22.80
2019-01-04T13:07:20.013Z,41.00
2019-01-04T13:09:53.854Z,41.37
2019-01-04T13:12:28.113Z,47.10
2019-01-04T13:15:01.715Z,76.13
2019-01-04T13:17:37.044Z,70.27
2019-01-04T13:20:13.408Z,73.13
2019-01-04T13:22:48.575Z,64.83
2019-01-04T13:25:23.432Z,178.13
2019-01-04T13:27:56.935Z,87.80
2019-01-04T13:30:30.771Z,90.10
2019-01-04T13:33:04.370Z,41.10
2019-01-04T13:35:38.740Z,56.27
2019-01-04T13:38:12.660Z,59.03
2019-01-04T13:40:46.270Z,33.83
2019-01-04T13:43:20.077Z,68.13
2019-01-04T13:45:54.063Z,80.37
2019-01-04T13:48:27.731Z,59.60
2019-01-04T13:51:01.134Z,28.97
2019-01-04T13:53:35.964Z,76.83
2019-01-04T13:56:09.495Z,71.73
2019-01-04T13:58:42.921Z,96.40
2019-01-04T14:01:16.242Z,43.00
2019-01-04T14:03:49.734Z,90.07
2019-01-04T14:06:24.341Z,63.53
2019-01-04T14:08:58.074Z,144.57
2019-01-04T14:11:31.608Z,60.53
2019-01-04T14:14:05.627Z,42.50
2019-01-04T14:16:39.211Z,28.17
2019-01-04T14:19:12.594Z,72.20
2019-01-04T14:21:46.011Z,37.30
2019-01-04T14:24:19.381Z,86.83
2019-01-04T14:26:52.869Z,47.50
2019-01-04T14:29:26.340Z,52.67
2019-01-04T14:31:59.560Z,29.33
2019-01-04T14:34:33.189Z,47.47
2019-01-04T14:37:07.165Z,40.27
2019-01-04T14:39:42.815Z,40.60
2019-01-04T14:42:16.375Z,51.90
2019-01-04T14:44:50.427Z,63.07
2019-01-04T14:47:26.663Z,181.67
2019-01-04T14:50:00.160Z,32.10
2019-01-04T14:52:33.707Z,34.90
2019-01-04T14:55:07.393Z,39.80
2019-01-04T14:57:40.684Z,28.10
2019-01-04T15:00:16.339Z,37.10
2019-01-04T15:02:50.907Z,26.17
2019-01-04T15:05:24.629Z,17.10
2019-01-04T15:07:58.683Z,29.40
2019-01-04T15:10:32.284Z,27.30
2019-01-04T15:13:05.942Z,25.07
2019-01-04T15:15:40.387Z,42.13
2019-01-04T15:18:13.904Z,49.80
2019-01-04T15:20:47.615Z,38.10
2019-01-04T15:23:21.433Z,22.07
2019-01-04T15:25:55.095Z,37.97
2019-01-04T15:28:28.394Z,33.27
2019-01-04T15:31:01.864Z,29.23
2019-01-04T15:33:35.379Z,37.00
2019-01-04T15:36:09.294Z,27.53
2019-01-04T15:38:45.005Z,23.87
2019-01-04T15:41:18.744Z,29.40
2019-01-04T15:43:52.384Z,31.03
2019-01-04T15:46:26.618Z,19.37
2019-01-04T15:49:00.239Z,24.13
2019-01-04T15:51:33.930Z,15.47
2019-01-04T15:54:07.995Z,23.67
2019-01-04T15:56:42.001Z,27.57
2019-01-04T15:59:15.876Z,36.10
2019-01-04T16:01:50.038Z,41.47
2019-01-04T16:04:24.117Z,27.47
2019-01-04T16:06:58.393Z,28.23
2019-01-04T16:09:33.287Z,24.83
2019-01-04T16:12:07.067Z,26.80
2019-01-04T16:14:41.102Z,23.50
2019-01-04T16:17:15.297Z,29.73
2019-01-04T16:19:49.147Z,33.10
2019-01-04T16:22:23.112Z,25.23
2019-01-04T16:24:57.194Z,30.43
2019-01-04T16:27:31.004Z,19.87
2019-01-04T16:30:06.567Z,93.60
2019-01-04T16:32:40.549Z,20.20
2019-01-04T16:35:14.356Z,21.00
2019-01-04T16:37:48.267Z,27.57
2019-01-04T16:40:22.128Z,17.33
2019-01-04T16:42:56.279Z,32.90
2019-01-04T16:45:30.875Z,18.80
2019-01-04T16:48:04.538Z,17.73
2019-01-04T16:50:38.427Z,26.93
2019-01-04T16:53:12.309Z,34.03
2019-01-04T16:55:47.467Z,16.43
2019-01-04T16:58:21.504Z,17.73
2019-01-04T17:00:55.164Z,20.90
2019-01-04T17:03:28.847Z,21.43
2019-01-04T17:06:03.134Z,16.70
2019-01-04T17:08:38.888Z,18.60
2019-01-04T17:11:13.217Z,21.07
2019-01-04T17:13:46.864Z,19.50
2019-01-04T17:16:21.256Z,25.00
2019-01-04T17:18:55.186Z,34.60
2019-01-04T17:21:30.568Z,30.13
2019-01-04T17:24:04.963Z,50.77
2019-01-04T17:26:39.107Z,44.50
2019-01-04T17:29:13.081Z,30.40
2019-01-04T17:31:46.987Z,41.37
2019-01-04T17:34:20.858Z,29.53
2019-01-04T17:36:55.908Z,26.70
2019-01-04T17:39:29.823Z,21.50
2019-01-04T17:42:03.887Z,19.07
2019-01-04T17:44:37.789Z,21.30
2019-01-04T17:47:11.840Z,20.17
2019-01-04T17:49:45.855Z,22.00
2019-01-04T17:52:19.707Z,18.37
2019-01-04T17:54:53.642Z,21.00
2019-01-04T17:57:27.884Z,16.13
2019-01-04T18:00:01.913Z,17.80
2019-01-04T18:02:36.195Z,29.23
2019-01-04T18:05:10.228Z,18.33
2019-01-04T18:07:44.605Z,22.37
2019-01-04T18:10:18.475Z,39.50
2019-01-04T18:12:52.467Z,22.70
2019-01-04T18:15:26.634Z,44.13
2019-01-04T18:18:00.754Z,21.37
2019-01-04T18:20:35.056Z,49.93
2019-01-04T18:23:09.404Z,32.03
2019-01-04T18:25:43.629Z,107.43
2019-01-04T18:28:17.885Z,25.88
2019-01-04T18:30:51.916Z,20.20
2019-01-04T18:33:26.214Z,19.57
2019-01-04T18:36:00.984Z,26.73
2019-01-04T18:38:35.029Z,63.80
2019-01-04T18:41:09.307Z,25.47
2019-01-04T18:43:43.728Z,39.40
2019-01-04T18:46:18.283Z,88.80
2019-01-04T18:48:53.706Z,25.60
2019-01-04T18:51:27.797Z,20.93
2019-01-04T18:54:01.953Z,24.37
2019-01-04T18:56:35.997Z,21.47
2019-01-04T18:59:10.984Z,15.70
2019-01-04T19:01:45.478Z,16.10
2019-01-04T19:04:19.707Z,16.43
2019-01-04T19:06:54.494Z,17.20
2019-01-04T19:09:29.453Z,18.63
2019-01-04T19:12:03.403Z,21.93
2019-01-04T19:14:39.227Z,16.63
2019-01-04T19:17:13.868Z,15.73
2019-01-04T19:19:48.254Z,14.20
2019-01-04T19:22:22.858Z,16.83
2019-01-04T19:24:56.907Z,18.43
2019-01-04T19:27:32.062Z,18.20
2019-01-04T19:30:06.694Z,15.37
2019-01-04T19:32:41.127Z,20.03
2019-01-04T19:35:15.427Z,13.33
2019-01-04T19:37:49.666Z,16.83
2019-01-04T19:40:24.037Z,17.30
2019-01-04T19:42:59.587Z,17.07
2019-01-04T19:45:34.027Z,14.17
2019-01-04T19:48:08.869Z,16.40
2019-01-04T19:50:43.645Z,15.40
2019-01-04T19:53:18.129Z,14.80
2019-01-04T19:55:52.346Z,17.43
2019-01-04T19:58:27.036Z,15.10
2019-01-04T20:01:01.785Z,18.50
2019-01-04T20:03:36.538Z,12.67
2019-01-04T20:07:20.687Z,18.07
2019-01-04T20:11:13.783Z,22.70
2019-01-04T20:15:07.565Z,17.13
2019-01-04T20:18:03.795Z,14.63
2019-01-04T20:21:01.497Z,18.17
2019-01-04T20:24:00.539Z,14.20
2019-01-04T20:26:53.646Z,17.00
2019-01-04T20:29:58.955Z,14.27
2019-01-04T20:33:07.624Z,14.83
2019-01-04T20:36:11.595Z,19.87
2019-01-04T20:39:04.548Z,20.20
2019-01-04T20:41:56.267Z,20.33
2019-01-04T20:44:49.335Z,17.83
2019-01-04T20:47:40.954Z,19.10
2019-01-04T20:50:34.055Z,24.43
2019-01-04T20:53:30.874Z,24.63
2019-01-04T20:56:36.014Z,17.03
2019-01-04T20:59:27.463Z,24.80
2019-01-04T21:02:21.964Z,25.37
2019-01-04T21:05:13.847Z,22.87
2019-01-04T21:08:26.387Z,19.90
2019-01-04T21:11:19.488Z,18.73
2019-01-04T21:14:10.944Z,17.87
2019-01-04T21:17:13.554Z,16.03
2019-01-04T21:20:17.944Z,15.40
2019-01-04T21:23:26.797Z,12.43
2019-01-04T21:26:20.360Z,15.10
2019-01-04T21:29:16.364Z,11.47
2019-01-04T21:32:15.544Z,9.67
2019-01-04T21:35:08.001Z,9.10
2019-01-04T21:38:09.966Z,13.80
2019-01-04T21:40:57.671Z,13.83
2019-01-04T21:43:46.691Z,9.20
2019-01-04T21:46:48.603Z,9.07
2019-01-04T21:49:40.274Z,10.00
2019-01-04T21:52:23.737Z,9.27
2019-01-04T21:55:16.477Z,10.93
2019-01-04T21:58:07.543Z,13.13
2019-01-04T22:00:55.631Z,9.30
2019-01-04T22:03:51.624Z,12.70
2019-01-04T22:06:56.693Z,7.90
2019-01-04T22:09:45.388Z,11.23
2019-01-04T22:12:36.760Z,12.00
2019-01-04T22:15:35.612Z,11.83
2019-01-04T22:18:43.627Z,10.93
2019-01-04T22:21:36.052Z,13.77
2019-01-04T22:24:34.488Z,8.63
2019-01-04T22:27:39.223Z,12.27
2019-01-04T22:30:34.683Z,10.03
2019-01-04T22:33:38.953Z,8.67
2019-01-04T22:36:34.258Z,6.87
2019-01-04T22:39:28.223Z,6.30
2019-01-04T22:42:29.142Z,7.37
2019-01-04T22:45:21.165Z,11.37
2019-01-04T22:48:25.330Z,8.43
2019-01-04T22:51:20.431Z,7.17
2019-01-04T22:54:12.218Z,8.70
2019-01-04T22:57:04.057Z,8.63
2019-01-04T23:00:04.337Z,7.33
2019-01-04T23:02:56.458Z,7.70
2019-01-04T23:05:57.964Z,9.13
2019-01-04T23:08:56.852Z,8.57
2019-01-04T23:11:52.067Z,8.57
2019-01-04T23:14:48.415Z,7.00
2019-01-04T23:17:43.821Z,12.00
2019-01-04T23:20:35.855Z,10.30
2019-01-04T23:23:27.904Z,9.57
2019-01-04T23:26:19.502Z,12.83
2019-01-04T23:29:27.503Z,11.67
2019-01-04T23:32:12.438Z,12.20
2019-01-04T23:35:07.627Z,12.07
2019-01-04T23:38:03.725Z,10.03
2019-01-04T23:40:56.054Z,11.80
2019-01-04T23:44:00.423Z,12.03
2019-01-04T23:46:51.186Z,6.57
2019-01-04T23:49:47.592Z,13.83
2019-01-04T23:52:44.573Z,9.73
2019-01-04T23:55:35.502Z,10.00
2019-01-04T23:58:35.110Z,12.67
